Granville, Arizona
Current Conditions -  °F | °C
As of 7:51 PM on Thursday 18 Dec 2014 (Local Time) from KSAD Reporting Station
Few Clouds Few Clouds  
Wind Chill: 40°   Ceiling: Unl
Heat Index: 44°   Visibility: 10mi
Dew Point: 41°   Wind: 7mph
Humidity: 89%   Direction: 290°WNW
Pressure: 30.14"   Gusts: NA
Location:  33.19°N, 109.38°W
Report Text: KSAD 190251Z AUTO 29006KT 10SM FEW100 07/05 A3014 RMK AO2 SLP199 T00670050 51016
Loading
Personal Weather Stations






























Interactive Weather Map New forecast layout! Learn more

10-Day Weather Forecast

Advertisements
Track Severe Weather on mobile